Fulmar — WDD3992 — position and weather

sailwx.info

Track history (hours):
 
Tides and Currents Weather Stations Pressure Air Temp Water Temp Dewpoint Dewpoint Depression Visibility Wind Speed Wind Dir Waves Ship Positions

Oceanographic research ship Fulmar (United States)

Owner: NOAA R/V Fulmar, Monterey, CA. More information available from US FCC via Universal Licensing System.

Last reported at 2017-Mar-11 00:13 UTC. Time now 2017-Mar-26 13:03 UTC.
Position N 36°37' W 121°54'.
Warning: this ship's position is 15 days out of date.

Length 20 m; draft 2 m.

Type: Ship. MMSI: 367139040.

Date/timePositionNaut miles runAvg speedWind from/ knotsBaromVisibWave heightAir tempDewpointWater temp
2017-Mar-11 00:13N 36°37' W 121°54'0 0.0
2017-Mar-10 23:33N 36°37' W 121°54'0 0.0
2017-Mar-10 22:33N 36°37' W 121°54'0 0.0
2017-Mar-10 21:33N 36°37' W 121°54'0 0.0
2017-Mar-10 20:33N 36°37' W 121°54'  
2017-Mar-03 20:33N 36°37' W 121°54'0 0.0
2017-Mar-03 19:33N 36°37' W 121°54'0 0.0
2017-Mar-03 18:33N 36°37' W 121°54'0 0.0
2017-Mar-02 15:11N 36°37' W 121°54'7 8.5
2017-Mar-02 14:20N 36°42' W 121°60'911.4
2017-Mar-02 13:33N 36°38' W 122°10'5 5.5
2017-Mar-02 12:33N 36°36' W 122°03'8 7.5
2017-Mar-02 11:30N 36°39' W 121°55'3 3.2
2017-Mar-02 10:33N 36°37' W 121°54'0 0.0
2017-Mar-01 21:24N 36°37' W 121°54'3 1.1
2017-Mar-01 18:30N 36°39' W 121°55'1 0.3
2017-Mar-01 16:08N 36°39' W 121°54'2 4.3
2017-Mar-01 15:34N 36°37' W 121°54'0 0.0
2017-Mar-01 14:34N 36°37' W 121°54'  
Track history (hours):
 
Tides and Currents Weather Stations Pressure Air Temp Water Temp Dewpoint Dewpoint Depression Visibility Wind Speed Wind Dir Waves Ship Positions

Oceanographic research ship Fulmar (United States)

Owner: NOAA R/V Fulmar, Monterey, CA. More information available from US FCC via Universal Licensing System.

Last reported at 2017-Mar-11 00:13 UTC. Time now 2017-Mar-26 13:03 UTC.
Position N 36°37' W 121°54'.
Warning: this ship's position is 15 days out of date.

Length 20 m; draft 2 m.

Type: Ship. MMSI: 367139040.

Date/timePositionNaut miles runAvg speedWind from/ knotsBaromVisibWave heightAir tempDewpointWater temp
2017-Mar-11 00:13N 36°37' W 121°54'0 0.0
2017-Mar-10 23:33N 36°37' W 121°54'0 0.0
2017-Mar-10 22:33N 36°37' W 121°54'0 0.0
2017-Mar-10 21:33N 36°37' W 121°54'0 0.0
2017-Mar-10 20:33N 36°37' W 121°54'  
2017-Mar-03 20:33N 36°37' W 121°54'0 0.0
2017-Mar-03 19:33N 36°37' W 121°54'0 0.0
2017-Mar-03 18:33N 36°37' W 121°54'0 0.0
2017-Mar-02 15:11N 36°37' W 121°54'7 8.5
2017-Mar-02 14:20N 36°42' W 121°60'911.4
2017-Mar-02 13:33N 36°38' W 122°10'5 5.5
2017-Mar-02 12:33N 36°36' W 122°03'8 7.5
2017-Mar-02 11:30N 36°39' W 121°55'3 3.2
2017-Mar-02 10:33N 36°37' W 121°54'0 0.0
2017-Mar-01 21:24N 36°37' W 121°54'3 1.1
2017-Mar-01 18:30N 36°39' W 121°55'1 0.3
2017-Mar-01 16:08N 36°39' W 121°54'2 4.3
2017-Mar-01 15:34N 36°37' W 121°54'0 0.0
2017-Mar-01 14:34N 36°37' W 121°54'  

Dump ship's entire track history